sensor_id;sensor_type;location;lat;lon;timestamp;pressure;altitude;pressure_sealevel;temperature;humidity
4598;BME280;62772;48.646;8.906;2023-04-04T00:04:14;96962.53;;;-0.75;98.29
4598;BME280;62772;48.646;8.906;2023-04-04T00:09:14;96958.06;;;-0.74;97.85
4598;BME280;62772;48.646;8.906;2023-04-04T00:14:15;96959.06;;;-0.75;98.57
4598;BME280;62772;48.646;8.906;2023-04-04T00:19:16;96948.69;;;-0.82;100.00
4598;BME280;62772;48.646;8.906;2023-04-04T00:24:18;96950.00;;;-0.91;98.74
4598;BME280;62772;48.646;8.906;2023-04-04T00:29:18;96952.53;;;-0.84;95.96
4598;BME280;62772;48.646;8.906;2023-04-04T00:34:18;96941.03;;;-0.83;94.92
4598;BME280;62772;48.646;8.906;2023-04-04T00:39:20;96940.97;;;-0.95;100.00
4598;BME280;62772;48.646;8.906;2023-04-04T00:44:20;96944.38;;;-0.76;91.93
4598;BME280;62772;48.646;8.906;2023-04-04T00:49:21;96935.75;;;-0.95;95.33
4598;BME280;62772;48.646;8.906;2023-04-04T00:54:21;96938.38;;;-0.95;96.04
4598;BME280;62772;48.646;8.906;2023-04-04T00:59:24;96928.63;;;-1.06;97.62
4598;BME280;62772;48.646;8.906;2023-04-04T01:04:26;96931.03;;;-1.05;98.30
4598;BME280;62772;48.646;8.906;2023-04-04T01:09:30;96929.13;;;-1.16;98.18
4598;BME280;62772;48.646;8.906;2023-04-04T01:14:31;96925.25;;;-1.32;100.00
4598;BME280;62772;48.646;8.906;2023-04-04T01:19:36;96920.59;;;-1.49;100.00
4598;BME280;62772;48.646;8.906;2023-04-04T01:24:45;96912.38;;;-1.52;100.00
4598;BME280;62772;48.646;8.906;2023-04-04T01:29:49;96913.75;;;-1.68;100.00
4598;BME280;62772;48.646;8.906;2023-04-04T01:40:24;96917.22;;;-1.74;100.00
4598;BME280;62772;48.646;8.906;2023-04-04T01:45:27;96909.25;;;-1.42;100.00
4598;BME280;62772;48.646;8.906;2023-04-04T01:50:30;96914.97;;;-1.71;100.00
4598;BME280;62772;48.646;8.906;2023-04-04T01:55:31;96898.75;;;-1.61;100.00
4598;BME280;62772;48.646;8.906;2023-04-04T02:00:33;96905.03;;;-1.62;100.00
4598;BME280;62772;48.646;8.906;2023-04-04T02:05:34;96901.03;;;-1.46;98.63
4598;BME280;62772;48.646;8.906;2023-04-04T02:10:35;96914.56;;;-1.49;97.29
4598;BME280;62772;48.646;8.906;2023-04-04T02:15:35;96915.94;;;-1.47;96.26
4598;BME280;62772;48.646;8.906;2023-04-04T02:20:36;96911.25;;;-1.82;100.00
4598;BME280;62772;48.646;8.906;2023-04-04T02:25:36;96913.22;;;-1.77;99.58
4598;BME280;62772;48.646;8.906;2023-04-04T02:30:37;96909.41;;;-1.99;100.00
4598;BME280;62772;48.646;8.906;2023-04-04T02:35:37;96908.69;;;-1.88;100.00
4598;BME280;62772;48.646;8.906;2023-04-04T02:40:39;96909.56;;;-1.94;100.00
4598;BME280;62772;48.646;8.906;2023-04-04T02:45:42;96902.97;;;-2.04;100.00
4598;BME280;62772;48.646;8.906;2023-04-04T02:50:53;96903.94;;;-2.23;100.00
4598;BME280;62772;48.646;8.906;2023-04-04T02:55:54;96900.91;;;-2.20;100.00
4598;BME280;62772;48.646;8.906;2023-04-04T03:00:55;96888.88;;;-2.28;100.00
4598;BME280;62772;48.646;8.906;2023-04-04T03:06:00;96903.28;;;-2.44;100.00
4598;BME280;62772;48.646;8.906;2023-04-04T03:11:01;96898.16;;;-2.57;100.00
4598;BME280;62772;48.646;8.906;2023-04-04T03:16:03;96895.66;;;-2.45;100.00
4598;BME280;62772;48.646;8.906;2023-04-04T03:21:16;96904.44;;;-2.65;100.00
4598;BME280;62772;48.646;8.906;2023-04-04T03:26:17;96893.81;;;-2.70;100.00
4598;BME280;62772;48.646;8.906;2023-04-04T03:31:18;96885.13;;;-2.96;100.00
4598;BME280;62772;48.646;8.906;2023-04-04T03:36:19;96889.22;;;-2.75;100.00
4598;BME280;62772;48.646;8.906;2023-04-04T03:41:23;96887.50;;;-2.87;100.00
4598;BME280;62772;48.646;8.906;2023-04-04T03:46:24;96885.63;;;-2.80;100.00
4598;BME280;62772;48.646;8.906;2023-04-04T03:51:25;96894.84;;;-3.10;100.00
4598;BME280;62772;48.646;8.906;2023-04-04T03:56:26;96898.25;;;-3.09;100.00
4598;BME280;62772;48.646;8.906;2023-04-04T04:01:27;96900.31;;;-3.18;100.00
4598;BME280;62772;48.646;8.906;2023-04-04T04:06:28;96894.25;;;-3.18;100.00
4598;BME280;62772;48.646;8.906;2023-04-04T04:11:28;96897.25;;;-3.08;100.00
4598;BME280;62772;48.646;8.906;2023-04-04T04:16:29;96894.06;;;-2.78;100.00
4598;BME280;62772;48.646;8.906;2023-04-04T04:21:31;96905.75;;;-3.33;100.00
4598;BME280;62772;48.646;8.906;2023-04-04T04:26:31;96895.16;;;-2.93;100.00
4598;BME280;62772;48.646;8.906;2023-04-04T04:31:33;96895.53;;;-3.34;100.00
4598;BME280;62772;48.646;8.906;2023-04-04T04:36:34;96896.03;;;-3.12;100.00
4598;BME280;62772;48.646;8.906;2023-04-04T04:41:53;96897.41;;;-3.03;100.00
4598;BME280;62772;48.646;8.906;2023-04-04T04:46:56;96908.63;;;-3.48;100.00
4598;BME280;62772;48.646;8.906;2023-04-04T04:51:56;96905.56;;;-3.24;100.00
4598;BME280;62772;48.646;8.906;2023-04-04T04:56:57;96901.25;;;-3.64;100.00
4598;BME280;62772;48.646;8.906;2023-04-04T05:02:00;96913.84;;;-3.41;100.00
4598;BME280;62772;48.646;8.906;2023-04-04T05:07:00;96909.63;;;-3.42;100.00
4598;BME280;62772;48.646;8.906;2023-04-04T05:12:13;96915.16;;;-3.18;100.00
4598;BME280;62772;48.646;8.906;2023-04-04T05:17:18;96907.81;;;-2.89;100.00
4598;BME280;62772;48.646;8.906;2023-04-04T05:22:19;96911.59;;;-2.85;100.00
4598;BME280;62772;48.646;8.906;2023-04-04T05:27:24;96914.69;;;-3.02;100.00
4598;BME280;62772;48.646;8.906;2023-04-04T05:32:30;96922.22;;;-2.80;100.00
4598;BME280;62772;48.646;8.906;2023-04-04T05:37:40;96914.16;;;-2.72;100.00
4598;BME280;62772;48.646;8.906;2023-04-04T05:42:53;96912.28;;;-3.03;100.00
4598;BME280;62772;48.646;8.906;2023-04-04T05:47:55;96929.22;;;-2.74;100.00
4598;BME280;62772;48.646;8.906;2023-04-04T05:52:57;96926.13;;;-2.58;100.00
4598;BME280;62772;48.646;8.906;2023-04-04T05:57:58;96931.38;;;-2.32;100.00
4598;BME280;62772;48.646;8.906;2023-04-04T06:03:10;96932.88;;;-2.43;100.00
4598;BME280;62772;48.646;8.906;2023-04-04T06:08:13;96937.25;;;-2.37;100.00
4598;BME280;62772;48.646;8.906;2023-04-04T06:13:14;96930.53;;;-2.26;100.00
4598;BME280;62772;48.646;8.906;2023-04-04T06:18:20;96931.38;;;-2.32;100.00
4598;BME280;62772;48.646;8.906;2023-04-04T06:23:21;96929.47;;;-2.19;100.00
4598;BME280;62772;48.646;8.906;2023-04-04T06:28:23;96922.97;;;-2.09;100.00
4598;BME280;62772;48.646;8.906;2023-04-04T06:33:24;96926.28;;;-1.95;100.00
4598;BME280;62772;48.646;8.906;2023-04-04T06:38:25;96927.38;;;-1.85;100.00
4598;BME280;62772;48.646;8.906;2023-04-04T06:43:29;96923.34;;;-1.80;99.92
4598;BME280;62772;48.646;8.906;2023-04-04T06:48:30;96922.47;;;-1.74;98.68
4598;BME280;62772;48.646;8.906;2023-04-04T06:53:31;96925.59;;;-1.66;97.78
4598;BME280;62772;48.646;8.906;2023-04-04T06:58:31;96914.47;;;-1.61;94.91
4598;BME280;62772;48.646;8.906;2023-04-04T07:03:34;96909.63;;;-1.57;91.16
4598;BME280;62772;48.646;8.906;2023-04-04T07:08:34;96910.13;;;-1.49;87.20
4598;BME280;62772;48.646;8.906;2023-04-04T07:13:35;96903.28;;;-1.31;88.47
4598;BME280;62772;48.646;8.906;2023-04-04T07:18:36;96915.50;;;-1.25;86.23
4598;BME280;62772;48.646;8.906;2023-04-04T07:23:36;96912.94;;;-1.13;91.28
4598;BME280;62772;48.646;8.906;2023-04-04T07:28:36;96917.97;;;-0.93;83.85
4598;BME280;62772;48.646;8.906;2023-04-04T07:33:37;96924.81;;;-0.92;81.94
4598;BME280;62772;48.646;8.906;2023-04-04T07:38:37;96917.66;;;-0.85;87.46
4598;BME280;62772;48.646;8.906;2023-04-04T07:43:38;96918.91;;;-0.87;81.12
4598;BME280;62772;48.646;8.906;2023-04-04T07:48:38;96926.28;;;-0.66;84.67
4598;BME280;62772;48.646;8.906;2023-04-04T07:53:39;96918.69;;;-0.56;81.89
4598;BME280;62772;48.646;8.906;2023-04-04T07:58:39;96915.63;;;-0.41;78.80
4598;BME280;62772;48.646;8.906;2023-04-04T08:03:40;96914.75;;;-0.34;78.29
4598;BME280;62772;48.646;8.906;2023-04-04T08:08:40;96915.53;;;-0.34;78.34
4598;BME280;62772;48.646;8.906;2023-04-04T08:13:42;96926.06;;;-0.22;81.83
4598;BME280;62772;48.646;8.906;2023-04-04T08:18:42;96919.66;;;-0.14;80.61
4598;BME280;62772;48.646;8.906;2023-04-04T08:23:44;96923.00;;;-0.19;75.98
4598;BME280;62772;48.646;8.906;2023-04-04T08:28:44;96918.66;;;-0.13;75.80
4598;BME280;62772;48.646;8.906;2023-04-04T08:33:45;96917.88;;;-0.02;76.48
4598;BME280;62772;48.646;8.906;2023-04-04T08:38:45;96921.06;;;0.24;75.22
4598;BME280;62772;48.646;8.906;2023-04-04T08:43:46;96917.31;;;0.31;74.25
4598;BME280;62772;48.646;8.906;2023-04-04T08:48:55;96920.75;;;0.32;71.70
4598;BME280;62772;48.646;8.906;2023-04-04T08:53:56;96912.97;;;0.49;68.98
4598;BME280;62772;48.646;8.906;2023-04-04T08:58:57;96928.38;;;0.57;69.03
4598;BME280;62772;48.646;8.906;2023-04-04T09:03:59;96924.16;;;0.56;73.36
4598;BME280;62772;48.646;8.906;2023-04-04T09:09:01;96922.44;;;0.74;69.34
4598;BME280;62772;48.646;8.906;2023-04-04T09:14:02;96914.63;;;0.79;68.78
4598;BME280;62772;48.646;8.906;2023-04-04T09:19:03;96918.38;;;0.95;65.52
4598;BME280;62772;48.646;8.906;2023-04-04T09:24:04;96924.88;;;1.04;64.17
4598;BME280;62772;48.646;8.906;2023-04-04T09:29:07;96916.22;;;1.20;63.39
4598;BME280;62772;48.646;8.906;2023-04-04T09:34:07;96923.56;;;1.18;61.51
4598;BME280;62772;48.646;8.906;2023-04-04T09:39:09;96922.03;;;1.22;62.86
4598;BME280;62772;48.646;8.906;2023-04-04T09:44:10;96925.88;;;1.43;63.94
4598;BME280;62772;48.646;8.906;2023-04-04T09:49:19;96925.75;;;1.38;61.95
4598;BME280;62772;48.646;8.906;2023-04-04T09:54:22;96916.31;;;1.54;63.81
4598;BME280;62772;48.646;8.906;2023-04-04T09:59:23;96936.00;;;1.52;64.39
4598;BME280;62772;48.646;8.906;2023-04-04T10:04:23;96922.47;;;1.60;60.21
4598;BME280;62772;48.646;8.906;2023-04-04T10:09:27;96914.41;;;1.67;61.08
4598;BME280;62772;48.646;8.906;2023-04-04T10:14:34;96912.91;;;1.71;61.48
4598;BME280;62772;48.646;8.906;2023-04-04T10:19:36;96903.59;;;1.80;61.85
4598;BME280;62772;48.646;8.906;2023-04-04T10:24:36;96903.97;;;2.06;60.69
4598;BME280;62772;48.646;8.906;2023-04-04T10:29:37;96907.66;;;2.05;58.50
4598;BME280;62772;48.646;8.906;2023-04-04T10:34:42;96903.81;;;2.29;64.19
4598;BME280;62772;48.646;8.906;2023-04-04T10:45:12;96895.97;;;2.34;58.52
4598;BME280;62772;48.646;8.906;2023-04-04T10:50:13;96903.28;;;2.49;58.83
4598;BME280;62772;48.646;8.906;2023-04-04T10:55:15;96892.19;;;2.47;58.07
4598;BME280;62772;48.646;8.906;2023-04-04T11:00:17;96897.25;;;2.71;60.49
4598;BME280;62772;48.646;8.906;2023-04-04T11:05:37;96886.88;;;2.64;56.80
4598;BME280;62772;48.646;8.906;2023-04-04T11:10:43;96882.84;;;2.79;58.51
4598;BME280;62772;48.646;8.906;2023-04-04T11:15:50;96880.69;;;2.98;58.01
4598;BME280;62772;48.646;8.906;2023-04-04T11:20:53;96866.38;;;2.71;57.25
4598;BME280;62772;48.646;8.906;2023-04-04T11:25:54;96870.72;;;2.83;57.09
4598;BME280;62772;48.646;8.906;2023-04-04T11:41:51;96869.44;;;2.85;56.93
4598;BME280;62772;48.646;8.906;2023-04-04T11:52:07;96862.38;;;2.91;57.59
4598;BME280;62772;48.646;8.906;2023-04-04T11:57:12;96861.06;;;3.16;56.12
4598;BME280;62772;48.646;8.906;2023-04-04T12:02:15;96856.03;;;3.41;55.97
4598;BME280;62772;48.646;8.906;2023-04-04T12:07:18;96854.53;;;3.51;55.35
4598;BME280;62772;48.646;8.906;2023-04-04T12:12:20;96845.75;;;3.45;54.91
4598;BME280;62772;48.646;8.906;2023-04-04T12:17:21;96854.56;;;3.56;53.68
4598;BME280;62772;48.646;8.906;2023-04-04T12:22:21;96854.00;;;3.49;54.28
4598;BME280;62772;48.646;8.906;2023-04-04T12:27:22;96844.47;;;3.48;51.73
4598;BME280;62772;48.646;8.906;2023-04-04T12:32:23;96837.19;;;3.60;53.18
4598;BME280;62772;48.646;8.906;2023-04-04T12:37:27;96836.06;;;3.51;53.76
4598;BME280;62772;48.646;8.906;2023-04-04T12:42:29;96835.88;;;3.62;53.26
4598;BME280;62772;48.646;8.906;2023-04-04T12:47:30;96840.28;;;3.84;53.61
4598;BME280;62772;48.646;8.906;2023-04-04T12:52:31;96842.16;;;3.89;51.96
4598;BME280;62772;48.646;8.906;2023-04-04T12:57:32;96837.16;;;3.92;52.74
4598;BME280;62772;48.646;8.906;2023-04-04T13:02:34;96821.44;;;3.75;50.47
4598;BME280;62772;48.646;8.906;2023-04-04T13:07:37;96821.38;;;4.03;52.38
4598;BME280;62772;48.646;8.906;2023-04-04T13:12:56;96821.66;;;4.01;51.65
4598;BME280;62772;48.646;8.906;2023-04-04T13:18:15;96823.59;;;4.21;52.02
4598;BME280;62772;48.646;8.906;2023-04-04T13:23:15;96814.84;;;4.15;51.02
4598;BME280;62772;48.646;8.906;2023-04-04T13:28:16;96809.34;;;4.22;51.80
4598;BME280;62772;48.646;8.906;2023-04-04T13:33:17;96804.56;;;4.24;49.42
4598;BME280;62772;48.646;8.906;2023-04-04T13:38:18;96803.44;;;4.10;48.94
4598;BME280;62772;48.646;8.906;2023-04-04T13:43:18;96787.19;;;4.33;51.06
4598;BME280;62772;48.646;8.906;2023-04-04T13:48:19;96786.13;;;4.34;49.01
4598;BME280;62772;48.646;8.906;2023-04-04T13:53:20;96791.19;;;4.46;48.44
4598;BME280;62772;48.646;8.906;2023-04-04T13:58:20;96791.88;;;4.21;48.53
4598;BME280;62772;48.646;8.906;2023-04-04T14:03:22;96790.69;;;4.49;48.37
4598;BME280;62772;48.646;8.906;2023-04-04T14:08:22;96773.97;;;4.39;48.21
4598;BME280;62772;48.646;8.906;2023-04-04T14:13:23;96779.84;;;4.46;49.29
4598;BME280;62772;48.646;8.906;2023-04-04T14:18:23;96773.22;;;4.48;49.58
4598;BME280;62772;48.646;8.906;2023-04-04T14:23:24;96773.50;;;4.52;49.34
4598;BME280;62772;48.646;8.906;2023-04-04T14:28:24;96775.34;;;4.51;50.99
4598;BME280;62772;48.646;8.906;2023-04-04T14:33:25;96766.13;;;4.59;50.46
4598;BME280;62772;48.646;8.906;2023-04-04T14:38:25;96772.50;;;4.68;50.17
4598;BME280;62772;48.646;8.906;2023-04-04T14:43:25;96770.41;;;4.81;51.29
4598;BME280;62772;48.646;8.906;2023-04-04T14:48:26;96776.47;;;4.71;49.76
4598;BME280;62772;48.646;8.906;2023-04-04T14:53:26;96773.00;;;4.65;49.17
4598;BME280;62772;48.646;8.906;2023-04-04T14:58:27;96761.91;;;4.63;50.22
4598;BME280;62772;48.646;8.906;2023-04-04T15:03:27;96765.66;;;4.78;49.59
4598;BME280;62772;48.646;8.906;2023-04-04T15:08:28;96761.41;;;4.82;50.38
4598;BME280;62772;48.646;8.906;2023-04-04T15:13:28;96755.88;;;4.88;50.03
4598;BME280;62772;48.646;8.906;2023-04-04T15:18:28;96763.00;;;4.88;49.82
4598;BME280;62772;48.646;8.906;2023-04-04T15:23:29;96766.16;;;4.80;49.23
4598;BME280;62772;48.646;8.906;2023-04-04T15:28:30;96760.34;;;4.78;48.71
4598;BME280;62772;48.646;8.906;2023-04-04T15:33:30;96759.06;;;4.96;50.63
4598;BME280;62772;48.646;8.906;2023-04-04T15:38:31;96756.94;;;4.93;50.60
4598;BME280;62772;48.646;8.906;2023-04-04T15:43:32;96759.31;;;4.94;49.56
4598;BME280;62772;48.646;8.906;2023-04-04T15:48:33;96754.28;;;4.87;48.56
4598;BME280;62772;48.646;8.906;2023-04-04T15:53:33;96742.66;;;4.88;49.55
4598;BME280;62772;48.646;8.906;2023-04-04T15:58:34;96746.06;;;4.84;49.84
4598;BME280;62772;48.646;8.906;2023-04-04T16:03:34;96752.41;;;4.88;49.67
4598;BME280;62772;48.646;8.906;2023-04-04T16:08:35;96740.53;;;4.85;48.20
4598;BME280;62772;48.646;8.906;2023-04-04T16:13:35;96731.25;;;4.78;49.52
4598;BME280;62772;48.646;8.906;2023-04-04T16:18:35;96732.84;;;4.84;49.40
4598;BME280;62772;48.646;8.906;2023-04-04T16:23:36;96727.78;;;4.72;49.92
4598;BME280;62772;48.646;8.906;2023-04-04T16:28:38;96730.44;;;4.67;49.82
4598;BME280;62772;48.646;8.906;2023-04-04T16:33:39;96720.88;;;4.61;51.00
4598;BME280;62772;48.646;8.906;2023-04-04T16:38:40;96720.09;;;4.60;50.63
4598;BME280;62772;48.646;8.906;2023-04-04T16:43:40;96721.66;;;4.56;51.84
4598;BME280;62772;48.646;8.906;2023-04-04T16:48:42;96712.16;;;4.60;50.70
4598;BME280;62772;48.646;8.906;2023-04-04T16:53:43;96721.13;;;4.54;52.49
4598;BME280;62772;48.646;8.906;2023-04-04T16:58:44;96716.38;;;4.51;50.89
4598;BME280;62772;48.646;8.906;2023-04-04T17:03:45;96718.69;;;4.42;52.94
4598;BME280;62772;48.646;8.906;2023-04-04T17:08:45;96717.31;;;4.14;54.82
4598;BME280;62772;48.646;8.906;2023-04-04T17:13:48;96718.69;;;4.37;52.33
4598;BME280;62772;48.646;8.906;2023-04-04T17:18:48;96723.97;;;4.27;54.23
4598;BME280;62772;48.646;8.906;2023-04-04T17:23:48;96721.84;;;4.24;54.87
4598;BME280;62772;48.646;8.906;2023-04-04T17:28:49;96731.28;;;4.09;55.27
4598;BME280;62772;48.646;8.906;2023-04-04T17:33:50;96730.19;;;4.00;56.12
4598;BME280;62772;48.646;8.906;2023-04-04T17:38:50;96721.41;;;3.89;55.55
4598;BME280;62772;48.646;8.906;2023-04-04T17:43:51;96731.94;;;3.79;56.33
4598;BME280;62772;48.646;8.906;2023-04-04T17:48:51;96726.56;;;3.69;57.65
4598;BME280;62772;48.646;8.906;2023-04-04T17:53:51;96724.59;;;3.49;58.70
4598;BME280;62772;48.646;8.906;2023-04-04T17:58:54;96724.03;;;3.41;59.33
4598;BME280;62772;48.646;8.906;2023-04-04T18:03:54;96723.97;;;3.36;61.22
4598;BME280;62772;48.646;8.906;2023-04-04T18:08:56;96723.66;;;3.27;61.34
4598;BME280;62772;48.646;8.906;2023-04-04T18:13:57;96724.50;;;3.33;61.19
4598;BME280;62772;48.646;8.906;2023-04-04T18:18:58;96722.06;;;3.26;61.84
4598;BME280;62772;48.646;8.906;2023-04-04T18:23:59;96729.44;;;3.24;61.98
4598;BME280;62772;48.646;8.906;2023-04-04T18:29:00;96736.66;;;3.07;63.87
4598;BME280;62772;48.646;8.906;2023-04-04T18:34:00;96740.59;;;2.99;63.81
4598;BME280;62772;48.646;8.906;2023-04-04T18:39:01;96742.06;;;2.90;63.98
4598;BME280;62772;48.646;8.906;2023-04-04T18:44:02;96741.22;;;2.84;65.28
4598;BME280;62772;48.646;8.906;2023-04-04T18:49:03;96752.31;;;2.59;66.88
4598;BME280;62772;48.646;8.906;2023-04-04T18:54:04;96748.22;;;2.46;67.47
4598;BME280;62772;48.646;8.906;2023-04-04T18:59:04;96744.16;;;2.61;65.98
4598;BME280;62772;48.646;8.906;2023-04-04T19:04:06;96749.13;;;2.57;67.09
4598;BME280;62772;48.646;8.906;2023-04-04T19:09:08;96748.22;;;2.46;69.92
4598;BME280;62772;48.646;8.906;2023-04-04T19:14:08;96756.94;;;2.47;68.73
4598;BME280;62772;48.646;8.906;2023-04-04T19:19:09;96766.31;;;2.38;69.59
4598;BME280;62772;48.646;8.906;2023-04-04T19:24:09;96763.97;;;2.19;71.71
4598;BME280;62772;48.646;8.906;2023-04-04T19:29:18;96771.56;;;1.93;73.76
4598;BME280;62772;48.646;8.906;2023-04-04T19:34:19;96774.91;;;1.89;73.19
4598;BME280;62772;48.646;8.906;2023-04-04T19:39:22;96773.34;;;1.71;75.38
4598;BME280;62772;48.646;8.906;2023-04-04T19:44:24;96781.47;;;1.86;72.67
4598;BME280;62772;48.646;8.906;2023-04-04T19:49:26;96772.19;;;2.01;72.27
4598;BME280;62772;48.646;8.906;2023-04-04T19:54:34;96781.81;;;1.56;78.16
4598;BME280;62772;48.646;8.906;2023-04-04T20:10:39;96779.03;;;1.62;76.06
4598;BME280;62772;48.646;8.906;2023-04-04T20:20:49;96781.97;;;1.15;79.84
4598;BME280;62772;48.646;8.906;2023-04-04T20:25:52;96787.53;;;1.19;81.70
4598;BME280;62772;48.646;8.906;2023-04-04T20:30:53;96791.91;;;0.96;83.95
4598;BME280;62772;48.646;8.906;2023-04-04T20:35:54;96786.94;;;1.00;82.38
4598;BME280;62772;48.646;8.906;2023-04-04T20:40:54;96797.22;;;0.44;87.48
4598;BME280;62772;48.646;8.906;2023-04-04T20:45:55;96798.16;;;0.38;87.86
4598;BME280;62772;48.646;8.906;2023-04-04T20:50:55;96799.56;;;0.98;82.82
4598;BME280;62772;48.646;8.906;2023-04-04T20:55:56;96798.31;;;0.88;84.60
4598;BME280;62772;48.646;8.906;2023-04-04T21:00:59;96795.53;;;0.95;83.32
4598;BME280;62772;48.646;8.906;2023-04-04T21:06:07;96795.00;;;0.93;83.46
4598;BME280;62772;48.646;8.906;2023-04-04T21:11:10;96785.13;;;1.00;82.62
4598;BME280;62772;48.646;8.906;2023-04-04T21:16:12;96787.16;;;0.81;84.39
4598;BME280;62772;48.646;8.906;2023-04-04T21:21:17;96788.72;;;0.94;85.40
4598;BME280;62772;48.646;8.906;2023-04-04T21:26:32;96782.09;;;0.92;84.33
4598;BME280;62772;48.646;8.906;2023-04-04T21:31:36;96790.53;;;0.65;92.53
4598;BME280;62772;48.646;8.906;2023-04-04T21:36:37;96795.56;;;0.26;95.07
4598;BME280;62772;48.646;8.906;2023-04-04T21:41:38;96800.41;;;0.46;96.24
4598;BME280;62772;48.646;8.906;2023-04-04T21:46:39;96798.66;;;0.23;97.53
4598;BME280;62772;48.646;8.906;2023-04-04T21:51:40;96800.41;;;0.05;100.00
4598;BME280;62772;48.646;8.906;2023-04-04T21:56:41;96803.13;;;-0.37;100.00
4598;BME280;62772;48.646;8.906;2023-04-04T22:01:42;96799.34;;;-0.53;100.00
4598;BME280;62772;48.646;8.906;2023-04-04T22:06:42;96793.19;;;-0.59;100.00
4598;BME280;62772;48.646;8.906;2023-04-04T22:11:43;96793.19;;;-1.13;100.00
4598;BME280;62772;48.646;8.906;2023-04-04T22:16:44;96791.78;;;-1.27;100.00
4598;BME280;62772;48.646;8.906;2023-04-04T22:21:44;96792.81;;;-0.86;100.00
4598;BME280;62772;48.646;8.906;2023-04-04T22:26:45;96797.75;;;-0.66;100.00
4598;BME280;62772;48.646;8.906;2023-04-04T22:31:46;96791.94;;;-1.40;100.00
4598;BME280;62772;48.646;8.906;2023-04-04T22:36:46;96785.78;;;-1.04;100.00
4598;BME280;62772;48.646;8.906;2023-04-04T22:41:47;96781.75;;;-1.49;100.00
4598;BME280;62772;48.646;8.906;2023-04-04T22:46:47;96785.22;;;-1.85;100.00
4598;BME280;62772;48.646;8.906;2023-04-04T22:51:48;96785.56;;;-2.19;100.00
4598;BME280;62772;48.646;8.906;2023-04-04T22:56:48;96795.44;;;-2.02;100.00
4598;BME280;62772;48.646;8.906;2023-04-04T23:01:48;96786.66;;;-1.52;100.00
4598;BME280;62772;48.646;8.906;2023-04-04T23:06:49;96779.00;;;-1.23;100.00
4598;BME280;62772;48.646;8.906;2023-04-04T23:11:49;96773.72;;;-1.84;100.00
4598;BME280;62772;48.646;8.906;2023-04-04T23:16:50;96769.41;;;-2.34;100.00
4598;BME280;62772;48.646;8.906;2023-04-04T23:21:56;96771.47;;;-1.62;100.00
4598;BME280;62772;48.646;8.906;2023-04-04T23:26:57;96764.59;;;-1.44;100.00
4598;BME280;62772;48.646;8.906;2023-04-04T23:31:57;96762.03;;;-1.51;100.00
4598;BME280;62772;48.646;8.906;2023-04-04T23:36:58;96761.66;;;-0.94;100.00
4598;BME280;62772;48.646;8.906;2023-04-04T23:41:58;96748.97;;;-1.70;100.00
4598;BME280;62772;48.646;8.906;2023-04-04T23:46:59;96748.31;;;-1.04;100.00
4598;BME280;62772;48.646;8.906;2023-04-04T23:52:00;96751.56;;;-1.21;100.00
4598;BME280;62772;48.646;8.906;2023-04-04T23:57:00;96743.56;;;-1.26;100.00
